Time,TemperatureF,DewpointF,PressureIn,WindDirection,WindDirectionDegrees,WindSpeedMPH,WindSpeedGustMPH,Humidity,HourlyPrecipIn,Conditions,Clouds,dailyrainin,SoftwareType,DateUTC
2013-07-23 00:01:00,69.6,65.9,29.84,West,270,0.0,0.0,88,0.00,,,0.00,WUHU21623XXSP,2013-07-23 04:01:00,
2013-07-23 00:06:00,69.4,65.7,29.85,West,270,0.0,0.0,88,0.00,,,0.00,WUHU21623XXSP,2013-07-23 04:06:00,
2013-07-23 00:11:00,69.4,65.7,29.85,West,270,0.0,0.0,88,0.00,,,0.00,WUHU21623XXSP,2013-07-23 04:11:00,
2013-07-23 00:16:00,69.4,65.7,29.85,West,270,0.0,0.0,88,0.00,,,0.00,WUHU21623XXSP,2013-07-23 04:16:00,
2013-07-23 00:21:00,69.1,65.3,29.85,West,270,0.0,0.0,88,0.00,,,0.00,WUHU21623XXSP,2013-07-23 04:21:00,
2013-07-23 00:26:00,69.1,65.0,29.85,West,270,0.0,0.0,87,0.00,,,0.00,WUHU21623XXSP,2013-07-23 04:26:00,
2013-07-23 00:31:00,69.1,65.0,29.85,West,270,0.0,0.0,87,0.00,,,0.00,WUHU21623XXSP,2013-07-23 04:31:00,
2013-07-23 00:36:00,69.1,65.0,29.85,West,270,0.0,0.0,87,0.00,,,0.00,WUHU21623XXSP,2013-07-23 04:36:00,
2013-07-23 00:41:00,69.1,65.0,29.85,West,270,0.0,0.0,87,0.00,,,0.00,WUHU21623XXSP,2013-07-23 04:41:00,
2013-07-23 00:46:00,68.9,65.2,29.85,West,270,0.0,0.0,88,0.00,,,0.00,WUHU21623XXSP,2013-07-23 04:46:00,
2013-07-23 00:51:00,68.9,65.2,29.85,West,270,0.0,0.0,88,0.00,,,0.00,WUHU21623XXSP,2013-07-23 04:51:00,
2013-07-23 00:56:00,68.7,65.0,29.85,West,270,0.0,0.0,88,0.00,,,0.00,WUHU21623XXSP,2013-07-23 04:56:00,
2013-07-23 01:01:00,68.7,65.0,29.85,West,270,0.0,0.0,88,0.00,,,0.00,WUHU21623XXSP,2013-07-23 05:01:00,
2013-07-23 01:06:00,68.7,65.3,29.85,West,270,0.0,0.0,89,0.00,,,0.00,WUHU21623XXSP,2013-07-23 05:06:00,
2013-07-23 01:11:00,68.7,65.3,29.85,West,270,0.0,0.0,89,0.00,,,0.00,WUHU21623XXSP,2013-07-23 05:11:00,
2013-07-23 01:16:00,68.7,65.3,29.85,West,270,0.0,0.0,89,0.00,,,0.00,WUHU21623XXSP,2013-07-23 05:16:00,
2013-07-23 01:21:00,68.7,65.3,29.85,West,270,0.0,0.0,89,0.00,,,0.00,WUHU21623XXSP,2013-07-23 05:21:00,
2013-07-23 01:26:00,68.7,65.3,29.86,West,270,0.0,0.0,89,0.00,,,0.00,WUHU21623XXSP,2013-07-23 05:26:00,
2013-07-23 01:31:00,68.5,65.1,29.86,West,270,0.0,0.0,89,0.00,,,0.00,WUHU21623XXSP,2013-07-23 05:31:00,
2013-07-23 01:36:00,68.5,65.1,29.86,West,270,0.0,0.0,89,0.00,,,0.00,WUHU21623XXSP,2013-07-23 05:36:00,
2013-07-23 01:41:00,68.5,65.1,29.85,West,270,0.0,0.0,89,0.00,,,0.00,WUHU21623XXSP,2013-07-23 05:41:00,
2013-07-23 01:46:00,68.5,65.1,29.85,West,270,0.0,0.0,89,0.00,,,0.00,WUHU21623XXSP,2013-07-23 05:46:00,
2013-07-23 01:51:00,68.5,65.1,29.85,West,270,0.0,0.0,89,0.00,,,0.00,WUHU21623XXSP,2013-07-23 05:51:00,
2013-07-23 01:56:00,68.7,65.3,29.85,West,270,0.0,0.0,89,0.00,,,0.00,WUHU21623XXSP,2013-07-23 05:56:00,
2013-07-23 02:01:00,68.7,65.3,29.85,West,270,0.0,0.0,89,0.00,,,0.00,WUHU21623XXSP,2013-07-23 06:01:00,
2013-07-23 02:06:00,68.7,65.3,29.85,West,270,0.0,0.0,89,0.00,,,0.00,WUHU21623XXSP,2013-07-23 06:06:00,
2013-07-23 02:11:00,68.7,65.3,29.85,West,270,0.0,0.0,89,0.00,,,0.00,WUHU21623XXSP,2013-07-23 06:11:00,
2013-07-23 02:16:00,68.7,65.3,29.85,West,270,0.0,0.0,89,0.00,,,0.00,WUHU21623XXSP,2013-07-23 06:16:00,
2013-07-23 02:21:00,68.7,65.3,29.85,West,270,0.0,0.0,89,0.00,,,0.00,WUHU21623XXSP,2013-07-23 06:21:00,
2013-07-23 02:26:00,68.7,65.3,29.84,West,270,0.0,0.0,89,0.00,,,0.00,WUHU21623XXSP,2013-07-23 06:26:00,
2013-07-23 02:31:00,68.7,65.3,29.84,West,270,0.0,0.0,89,0.00,,,0.00,WUHU21623XXSP,2013-07-23 06:31:00,
2013-07-23 02:36:00,68.7,65.3,29.84,West,270,0.0,0.0,89,0.00,,,0.00,WUHU21623XXSP,2013-07-23 06:36:00,
2013-07-23 02:41:00,68.7,65.3,29.83,West,270,0.0,0.0,89,0.00,,,0.00,WUHU21623XXSP,2013-07-23 06:41:00,
2013-07-23 02:46:00,68.7,65.3,29.84,West,270,0.0,0.0,89,0.00,,,0.00,WUHU21623XXSP,2013-07-23 06:46:00,
2013-07-23 02:51:00,68.7,65.3,29.83,West,270,0.0,0.0,89,0.00,,,0.00,WUHU21623XXSP,2013-07-23 06:51:00,
2013-07-23 02:56:00,68.7,65.3,29.83,West,270,0.0,0.0,89,0.00,,,0.00,WUHU21623XXSP,2013-07-23 06:56:00,
2013-07-23 03:01:00,68.4,65.0,29.83,West,270,0.0,0.0,89,0.00,,,0.00,WUHU21623XXSP,2013-07-23 07:01:00,
2013-07-23 03:06:00,68.4,65.0,29.83,West,270,0.0,0.0,89,0.00,,,0.00,WUHU21623XXSP,2013-07-23 07:06:00,
2013-07-23 03:11:00,68.4,65.0,29.82,West,270,0.0,0.0,89,0.00,,,0.00,WUHU21623XXSP,2013-07-23 07:11:00,
2013-07-23 03:16:00,68.2,65.1,29.82,West,270,0.0,0.0,90,0.00,,,0.00,WUHU21623XXSP,2013-07-23 07:16:00,
2013-07-23 03:21:00,68.2,65.1,29.81,West,270,0.0,0.0,90,0.00,,,0.00,WUHU21623XXSP,2013-07-23 07:21:00,
2013-07-23 03:26:00,68.2,65.1,29.81,West,270,0.0,0.0,90,0.00,,,0.00,WUHU21623XXSP,2013-07-23 07:26:00,
2013-07-23 03:31:00,68.2,65.1,29.81,West,270,0.0,0.0,90,0.00,,,0.00,WUHU21623XXSP,2013-07-23 07:31:00,
2013-07-23 03:36:00,68.4,65.3,29.81,West,270,0.0,0.0,90,0.00,,,0.00,WUHU21623XXSP,2013-07-23 07:36:00,
2013-07-23 03:41:00,68.4,65.3,29.80,West,270,0.0,0.0,90,0.00,,,0.00,WUHU21623XXSP,2013-07-23 07:41:00,
2013-07-23 03:46:00,68.5,65.5,29.81,West,270,0.0,0.0,90,0.00,,,0.00,WUHU21623XXSP,2013-07-23 07:46:00,
2013-07-23 03:51:00,68.5,65.5,29.81,West,270,0.0,0.0,90,0.00,,,0.00,WUHU21623XXSP,2013-07-23 07:51:00,
2013-07-23 03:56:00,68.7,65.7,29.82,West,270,0.0,0.0,90,0.00,,,0.00,WUHU21623XXSP,2013-07-23 07:56:00,
2013-07-23 04:01:00,68.7,65.7,29.82,West,270,0.0,0.0,90,0.00,,,0.00,WUHU21623XXSP,2013-07-23 08:01:00,
2013-07-23 04:06:00,68.7,65.7,29.82,West,270,0.0,0.0,90,0.00,,,0.00,WUHU21623XXSP,2013-07-23 08:06:00,
2013-07-23 04:11:00,68.7,65.7,29.82,WSW,247,0.0,0.0,90,0.00,,,0.00,WUHU21623XXSP,2013-07-23 08:11:00,
2013-07-23 04:16:00,68.9,65.8,29.82,WSW,247,0.0,0.0,90,0.00,,,0.00,WUHU21623XXSP,2013-07-23 08:16:00,
2013-07-23 04:21:00,68.9,66.1,29.82,WSW,247,0.0,0.0,91,0.00,,,0.00,WUHU21623XXSP,2013-07-23 08:21:00,
2013-07-23 04:26:00,69.1,66.3,29.81,WSW,247,0.0,0.0,91,0.00,,,0.00,WUHU21623XXSP,2013-07-23 08:26:00,
2013-07-23 04:31:00,69.3,66.5,29.81,SSW,202,2.2,2.2,91,0.00,,,0.00,WUHU21623XXSP,2013-07-23 08:31:00,
2013-07-23 04:36:00,69.4,66.7,29.81,SW,225,0.0,2.2,91,0.00,,,0.00,WUHU21623XXSP,2013-07-23 08:36:00,
2013-07-23 04:41:00,69.6,66.9,29.81,SW,225,0.0,2.2,91,0.00,,,0.00,WUHU21623XXSP,2013-07-23 08:41:00,
2013-07-23 04:46:00,69.6,66.9,29.80,SW,225,0.0,0.0,91,0.00,,,0.00,WUHU21623XXSP,2013-07-23 08:46:00,
2013-07-23 04:51:00,69.6,66.9,29.79,ESE,112,0.0,0.0,91,0.00,,,0.00,WUHU21623XXSP,2013-07-23 08:51:00,
2013-07-23 04:56:00,69.8,66.7,29.79,SE,135,0.0,0.0,90,0.00,,,0.00,WUHU21623XXSP,2013-07-23 08:56:00,
2013-07-23 05:01:00,70.0,66.9,29.79,SE,135,0.0,0.0,90,0.00,,,0.00,WUHU21623XXSP,2013-07-23 09:01:00,
2013-07-23 05:06:00,70.0,66.9,29.78,SE,135,0.0,0.0,90,0.00,,,0.00,WUHU21623XXSP,2013-07-23 09:06:00,
2013-07-23 05:11:00,70.0,66.9,29.78,SE,135,0.0,0.0,90,0.00,,,0.00,WUHU21623XXSP,2013-07-23 09:11:00,
2013-07-23 05:16:00,69.8,66.7,29.78,SE,135,0.0,0.0,90,0.00,,,0.00,WUHU21623XXSP,2013-07-23 09:16:00,
2013-07-23 05:21:00,69.6,66.6,29.77,SE,135,0.0,0.0,90,0.00,,,0.00,WUHU21623XXSP,2013-07-23 09:21:00,
2013-07-23 05:26:00,69.6,66.6,29.76,SE,135,0.0,0.0,90,0.00,,,0.00,WUHU21623XXSP,2013-07-23 09:26:00,
2013-07-23 05:31:00,69.6,66.6,29.74,SE,135,1.8,1.8,90,0.00,,,0.00,WUHU21623XXSP,2013-07-23 09:31:00,
2013-07-23 05:36:00,69.6,66.6,29.72,South,180,0.0,1.8,90,0.00,,,0.00,WUHU21623XXSP,2013-07-23 09:36:00,
2013-07-23 05:41:00,69.6,66.6,29.73,West,270,0.0,1.8,90,0.00,,,0.00,WUHU21623XXSP,2013-07-23 09:41:00,
2013-07-23 05:46:00,69.6,66.6,29.77,WSW,247,1.8,1.8,90,0.00,,,0.00,WUHU21623XXSP,2013-07-23 09:46:00,
2013-07-23 05:51:00,69.6,66.6,29.77,WSW,247,0.0,1.8,90,0.00,,,0.00,WUHU21623XXSP,2013-07-23 09:51:00,
2013-07-23 05:56:00,69.6,66.6,29.77,WNW,292,0.0,1.8,90,0.00,,,0.00,WUHU21623XXSP,2013-07-23 09:56:00,
2013-07-23 06:01:00,69.4,66.4,29.78,WNW,292,0.0,0.0,90,0.00,,,0.00,WUHU21623XXSP,2013-07-23 10:01:00,
2013-07-23 06:06:00,69.4,66.4,29.78,WNW,292,0.0,0.0,90,0.00,,,0.00,WUHU21623XXSP,2013-07-23 10:06:00,
2013-07-23 06:11:00,69.4,66.4,29.79,WNW,292,0.0,0.0,90,0.00,,,0.00,WUHU21623XXSP,2013-07-23 10:11:00,
2013-07-23 06:16:00,69.4,66.4,29.78,WNW,292,0.0,0.0,90,0.00,,,0.00,WUHU21623XXSP,2013-07-23 10:16:00,
2013-07-23 06:21:00,69.4,66.4,29.78,WNW,292,0.0,0.0,90,0.00,,,0.00,WUHU21623XXSP,2013-07-23 10:21:00,
2013-07-23 06:26:00,69.4,66.4,29.79,WNW,292,0.0,0.0,90,0.00,,,0.00,WUHU21623XXSP,2013-07-23 10:26:00,
2013-07-23 06:31:00,69.3,66.2,29.79,WNW,292,0.0,0.0,90,0.00,,,0.00,WUHU21623XXSP,2013-07-23 10:31:00,
2013-07-23 06:36:00,69.1,66.0,29.79,West,270,0.0,0.0,90,0.00,,,0.00,WUHU21623XXSP,2013-07-23 10:36:00,
2013-07-23 06:41:00,69.1,66.0,29.80,SW,225,0.0,0.0,90,0.00,,,0.00,WUHU21623XXSP,2013-07-23 10:41:00,
2013-07-23 06:46:00,69.1,66.0,29.80,WSW,247,1.6,1.6,90,0.00,,,0.00,WUHU21623XXSP,2013-07-23 10:46:00,
2013-07-23 06:51:00,69.1,66.0,29.80,SSE,157,0.0,1.6,90,0.00,,,0.00,WUHU21623XXSP,2013-07-23 10:51:00,
2013-07-23 06:56:00,69.1,66.0,29.80,SE,135,0.0,1.6,90,0.00,,,0.00,WUHU21623XXSP,2013-07-23 10:56:00,
2013-07-23 07:01:00,69.1,66.0,29.80,SE,135,0.0,0.0,90,0.00,,,0.00,WUHU21623XXSP,2013-07-23 11:01:00,
2013-07-23 07:06:00,69.1,66.0,29.80,WSW,247,0.0,0.0,90,0.00,,,0.00,WUHU21623XXSP,2013-07-23 11:06:00,
2013-07-23 07:11:00,69.1,66.0,29.80,WSW,247,0.0,0.0,90,0.00,,,0.00,WUHU21623XXSP,2013-07-23 11:11:00,
2013-07-23 07:16:00,69.1,66.0,29.80,WSW,247,0.0,0.0,90,0.00,,,0.00,WUHU21623XXSP,2013-07-23 11:16:00,
2013-07-23 07:21:00,69.1,66.0,29.80,WSW,247,0.0,0.0,90,0.00,,,0.00,WUHU21623XXSP,2013-07-23 11:21:00,
2013-07-23 07:26:00,69.1,66.0,29.80,WSW,247,0.0,0.0,90,0.00,,,0.00,WUHU21623XXSP,2013-07-23 11:26:00,
2013-07-23 07:31:00,69.3,66.2,29.80,SW,225,0.0,0.0,90,0.00,,,0.00,WUHU21623XXSP,2013-07-23 11:31:00,
2013-07-23 07:36:00,69.3,66.2,29.80,SW,225,0.0,0.0,90,0.00,,,0.00,WUHU21623XXSP,2013-07-23 11:36:00,
2013-07-23 07:41:00,69.4,66.4,29.79,SW,225,0.0,0.0,90,0.00,,,0.00,WUHU21623XXSP,2013-07-23 11:41:00,
2013-07-23 07:46:00,69.4,66.4,29.80,WSW,247,0.0,0.0,90,0.00,,,0.00,WUHU21623XXSP,2013-07-23 11:46:00,
2013-07-23 07:51:00,69.4,66.0,29.80,South,180,0.0,0.0,89,0.00,,,0.00,WUHU21623XXSP,2013-07-23 11:51:00,
2013-07-23 07:56:00,69.4,66.0,29.80,South,180,0.0,0.0,89,0.00,,,0.00,WUHU21623XXSP,2013-07-23 11:56:00,
2013-07-23 08:01:00,69.6,66.2,29.81,SW,225,0.0,0.0,89,0.00,,,0.00,WUHU21623XXSP,2013-07-23 12:01:00,
2013-07-23 08:06:00,69.6,66.2,29.80,SW,225,0.0,0.0,89,0.00,,,0.00,WUHU21623XXSP,2013-07-23 12:06:00,
2013-07-23 08:11:00,69.8,66.7,29.80,WSW,247,0.0,0.0,90,0.00,,,0.00,WUHU21623XXSP,2013-07-23 12:11:00,
2013-07-23 08:16:00,70.0,66.9,29.80,WNW,292,0.0,0.0,90,0.00,,,0.00,WUHU21623XXSP,2013-07-23 12:16:00,
2013-07-23 08:21:00,70.0,66.6,29.80,West,270,0.0,0.0,89,0.00,,,0.00,WUHU21623XXSP,2013-07-23 12:21:00,
2013-07-23 08:26:00,70.2,66.8,29.80,WSW,247,0.0,0.0,89,0.00,,,0.00,WUHU21623XXSP,2013-07-23 12:26:00,
2013-07-23 08:31:00,70.3,66.9,29.80,SW,225,0.0,0.0,89,0.00,,,0.00,WUHU21623XXSP,2013-07-23 12:31:00,
2013-07-23 08:36:00,70.3,66.9,29.80,SSW,202,0.0,0.0,89,0.00,,,0.00,WUHU21623XXSP,2013-07-23 12:36:00,
2013-07-23 08:41:00,70.5,67.1,29.80,WSW,247,0.0,0.0,89,0.00,,,0.00,WUHU21623XXSP,2013-07-23 12:41:00,
2013-07-23 08:46:00,70.7,67.3,29.80,WNW,292,0.0,0.0,89,0.00,,,0.00,WUHU21623XXSP,2013-07-23 12:46:00,
2013-07-23 08:51:00,70.7,67.3,29.81,WNW,292,0.0,0.0,89,0.00,,,0.00,WUHU21623XXSP,2013-07-23 12:51:00,
2013-07-23 08:56:00,70.9,67.5,29.81,WNW,292,0.0,0.0,89,0.00,,,0.00,WUHU21623XXSP,2013-07-23 12:56:00,
2013-07-23 09:01:00,71.1,67.7,29.81,NW,315,0.0,0.0,89,0.00,,,0.00,WUHU21623XXSP,2013-07-23 13:01:00,
2013-07-23 09:06:00,71.2,67.8,29.81,WNW,292,0.0,0.0,89,0.00,,,0.00,WUHU21623XXSP,2013-07-23 13:06:00,
2013-07-23 09:11:00,71.2,67.8,29.81,NNW,337,0.0,0.0,89,0.00,,,0.00,WUHU21623XXSP,2013-07-23 13:11:00,
2013-07-23 09:16:00,71.4,68.0,29.81,SW,225,0.0,0.0,89,0.00,,,0.00,WUHU21623XXSP,2013-07-23 13:16:00,
2013-07-23 09:21:00,71.4,67.7,29.81,WSW,247,0.0,0.0,88,0.00,,,0.00,WUHU21623XXSP,2013-07-23 13:21:00,
2013-07-23 09:26:00,71.8,68.0,29.81,NW,315,0.0,0.0,88,0.00,,,0.00,WUHU21623XXSP,2013-07-23 13:26:00,
2013-07-23 09:31:00,72.0,68.2,29.81,NW,315,0.0,0.0,88,0.00,,,0.00,WUHU21623XXSP,2013-07-23 13:31:00,
2013-07-23 09:36:00,72.1,68.4,29.81,NW,315,0.0,0.0,88,0.00,,,0.00,WUHU21623XXSP,2013-07-23 13:36:00,
2013-07-23 09:41:00,72.3,68.6,29.81,NW,315,0.0,0.0,88,0.00,,,0.00,WUHU21623XXSP,2013-07-23 13:41:00,
2013-07-23 09:46:00,72.7,68.9,29.81,West,270,0.0,0.0,88,0.00,,,0.00,WUHU21623XXSP,2013-07-23 13:46:00,
2013-07-23 09:51:00,72.9,69.1,29.81,NNW,337,0.0,0.0,88,0.00,,,0.00,WUHU21623XXSP,2013-07-23 13:51:00,
2013-07-23 09:56:00,73.0,69.0,29.81,SW,225,0.0,0.0,87,0.00,,,0.00,WUHU21623XXSP,2013-07-23 13:56:00,
2013-07-23 10:01:00,73.2,69.1,29.81,WSW,247,0.0,0.0,87,0.00,,,0.00,WUHU21623XXSP,2013-07-23 14:01:00,
2013-07-23 10:06:00,73.6,69.2,29.81,West,270,0.0,0.0,86,0.00,,,0.00,WUHU21623XXSP,2013-07-23 14:06:00,
2013-07-23 10:11:00,73.8,69.3,29.81,WSW,247,0.0,0.0,86,0.00,,,0.00,WUHU21623XXSP,2013-07-23 14:11:00,
2013-07-23 10:16:00,73.9,69.2,29.80,SW,225,0.0,0.0,85,0.00,,,0.00,WUHU21623XXSP,2013-07-23 14:16:00,
2013-07-23 10:21:00,74.3,69.5,29.81,NNW,337,0.0,0.0,85,0.00,,,0.00,WUHU21623XXSP,2013-07-23 14:21:00,
2013-07-23 10:22:00,74.3,69.5,29.81,NNW,337,0.0,0.0,85,0.00,,,0.00,WUHU21623XXSP,2013-07-23 14:22:00,
2013-07-23 10:27:00,74.5,69.4,29.82,NNW,337,0.0,0.0,84,0.00,,,0.00,WUHU21623XXSP,2013-07-23 14:27:00,
2013-07-23 10:32:00,74.8,69.7,29.81,NNW,337,0.0,0.0,84,0.00,,,0.00,WUHU21623XXSP,2013-07-23 14:32:00,
2013-07-23 10:37:00,74.8,69.4,29.81,NNW,337,0.0,0.0,83,0.00,,,0.00,WUHU21623XXSP,2013-07-23 14:37:00,
2013-07-23 10:42:00,75.0,69.6,29.81,SW,225,0.0,0.0,83,0.00,,,0.00,WUHU21623XXSP,2013-07-23 14:42:00,
2013-07-23 10:47:00,75.0,69.6,29.81,WSW,247,0.0,0.0,83,0.00,,,0.00,WUHU21623XXSP,2013-07-23 14:47:00,
2013-07-23 10:52:00,75.4,69.6,29.81,North,0,0.0,0.0,82,0.00,,,0.00,WUHU21623XXSP,2013-07-23 14:52:00,
2013-07-23 10:57:00,75.6,69.4,29.81,West,270,0.0,0.0,81,0.00,,,0.00,WUHU21623XXSP,2013-07-23 14:57:00,
2013-07-23 11:02:00,75.5,69.3,29.81,West,270,0.0,0.0,81,0.00,,,0.00,WUHU21623XXSP,2013-07-23 15:02:00,
2013-07-23 11:07:00,75.3,68.8,29.82,SW,225,0.0,0.0,80,0.00,,,0.00,WUHU21623XXSP,2013-07-23 15:07:00,
2013-07-23 11:11:00,75.2,68.7,29.81,WSW,247,0.0,0.0,80,0.00,,,0.00,WUHU21623XXSP,2013-07-23 15:11:00,
2013-07-23 11:17:00,75.1,68.2,29.81,NW,315,0.0,0.0,79,0.00,,,0.00,WUHU21623XXSP,2013-07-23 15:17:00,
2013-07-23 11:22:00,75.0,68.1,29.82,NNW,337,0.0,0.0,79,0.00,,,0.00,WUHU21623XXSP,2013-07-23 15:22:00,
2013-07-23 11:27:00,75.0,68.1,29.82,North,0,0.0,0.0,79,0.00,,,0.00,WUHU21623XXSP,2013-07-23 15:27:00,
2013-07-23 11:31:00,74.7,67.8,29.82,North,0,0.0,0.0,79,0.00,,,0.00,WUHU21623XXSP,2013-07-23 15:31:00,
2013-07-23 11:37:00,74.6,67.7,29.81,North,0,0.0,0.0,79,0.00,,,0.00,WUHU21623XXSP,2013-07-23 15:37:00,
2013-07-23 11:42:00,74.7,67.1,29.82,NNW,337,0.0,0.0,77,0.00,,,0.00,WUHU21623XXSP,2013-07-23 15:42:00,
2013-07-23 11:47:00,74.6,67.1,29.82,NNW,337,0.0,0.0,77,0.00,,,0.00,WUHU21623XXSP,2013-07-23 15:47:00,
2013-07-23 11:51:00,74.3,66.8,29.82,NNW,337,0.0,0.0,77,0.00,,,0.00,WUHU21623XXSP,2013-07-23 15:51:00,
2013-07-23 11:57:00,74.1,65.8,29.82,NNW,337,0.0,0.0,75,0.00,,,0.00,WUHU21623XXSP,2013-07-23 15:57:00,
2013-07-23 12:02:00,73.8,65.5,29.82,NNW,337,0.0,0.0,75,0.00,,,0.00,WUHU21623XXSP,2013-07-23 16:02:00,
2013-07-23 12:06:00,73.6,65.4,29.82,NW,315,0.0,0.0,75,0.00,,,0.00,WUHU21623XXSP,2013-07-23 16:06:00,
2013-07-23 12:12:00,73.4,65.2,29.82,NW,315,0.0,0.0,75,0.00,,,0.00,WUHU21623XXSP,2013-07-23 16:12:00,
2013-07-23 12:17:00,73.3,65.1,29.82,NW,315,0.0,0.0,75,0.00,,,0.00,WUHU21623XXSP,2013-07-23 16:17:00,
2013-07-23 12:22:00,73.1,64.9,29.82,NW,315,0.0,0.0,75,0.00,,,0.00,WUHU21623XXSP,2013-07-23 16:22:00,
2013-07-23 12:27:00,72.9,64.6,29.82,NW,315,0.0,0.0,75,0.00,,,0.00,WUHU21623XXSP,2013-07-23 16:27:00,
2013-07-23 12:32:00,72.7,64.4,29.83,North,0,0.0,0.0,75,0.00,,,0.00,WUHU21623XXSP,2013-07-23 16:32:00,
2013-07-23 12:37:00,72.5,64.2,29.83,North,0,0.0,0.0,75,0.00,,,0.00,WUHU21623XXSP,2013-07-23 16:37:00,
2013-07-23 12:41:00,72.3,64.0,29.83,North,0,0.0,0.0,75,0.00,,,0.00,WUHU21623XXSP,2013-07-23 16:41:00,
2013-07-23 12:47:00,72.5,64.2,29.83,North,0,0.0,0.0,75,0.00,,,0.00,WUHU21623XXSP,2013-07-23 16:47:00,
2013-07-23 12:52:00,72.3,63.3,29.83,North,0,0.0,0.0,73,0.00,,,0.00,WUHU21623XXSP,2013-07-23 16:52:00,
2013-07-23 12:57:00,72.1,63.2,29.82,North,0,0.0,0.0,73,0.00,,,0.00,WUHU21623XXSP,2013-07-23 16:57:00,
2013-07-23 13:02:00,72.0,63.0,29.82,WSW,247,0.0,0.0,73,0.00,,,0.00,WUHU21623XXSP,2013-07-23 17:02:00,
2013-07-23 13:07:00,71.8,62.9,29.82,WSW,247,0.0,0.0,73,0.00,,,0.00,WUHU21623XXSP,2013-07-23 17:07:00,
2013-07-23 13:12:00,71.7,62.7,29.82,West,270,2.9,2.9,73,0.00,,,0.00,WUHU21623XXSP,2013-07-23 17:12:00,
2013-07-23 13:17:00,71.6,62.6,29.82,West,270,2.9,2.9,73,0.00,,,0.00,WUHU21623XXSP,2013-07-23 17:17:00,
2013-07-23 13:22:00,72.6,63.6,29.82,West,270,2.9,2.9,73,0.00,,,0.00,WUHU21623XXSP,2013-07-23 17:22:00,
2013-07-23 13:27:00,72.3,62.1,29.81,WNW,292,0.0,2.9,70,0.00,,,0.00,WUHU21623XXSP,2013-07-23 17:27:00,
2013-07-23 13:32:00,72.2,62.1,29.81,NW,315,0.0,2.9,70,0.00,,,0.00,WUHU21623XXSP,2013-07-23 17:32:00,
2013-07-23 13:37:00,72.1,62.4,29.81,West,270,0.0,0.0,71,0.00,,,0.00,WUHU21623XXSP,2013-07-23 17:37:00,
2013-07-23 13:42:00,72.1,62.3,29.81,West,270,0.0,0.0,71,0.00,,,0.00,WUHU21623XXSP,2013-07-23 17:42:00,
2013-07-23 13:47:00,72.3,62.6,29.81,WNW,292,0.0,0.0,71,0.00,,,0.00,WUHU21623XXSP,2013-07-23 17:47:00,
2013-07-23 13:52:00,72.3,62.6,29.82,WNW,292,0.0,0.0,71,0.00,,,0.00,WUHU21623XXSP,2013-07-23 17:52:00,
2013-07-23 13:57:00,72.5,63.1,29.81,NW,315,0.0,0.0,72,0.00,,,0.00,WUHU21623XXSP,2013-07-23 17:57:00,
2013-07-23 14:02:00,72.7,63.3,29.81,NW,315,0.0,0.0,72,0.00,,,0.00,WUHU21623XXSP,2013-07-23 18:02:00,
2013-07-23 14:07:00,72.7,63.3,29.81,NNW,337,0.0,0.0,72,0.00,,,0.00,WUHU21623XXSP,2013-07-23 18:07:00,
2013-07-23 14:12:00,72.7,63.4,29.81,NNW,337,0.0,0.0,72,0.00,,,0.00,WUHU21623XXSP,2013-07-23 18:12:00,
2013-07-23 14:18:00,72.8,62.6,29.81,NNW,337,0.0,0.0,70,0.00,,,0.00,WUHU21623XXSP,2013-07-23 18:18:00,
2013-07-23 14:23:00,72.8,62.7,29.81,NNW,337,0.0,0.0,70,0.00,,,0.00,WUHU21623XXSP,2013-07-23 18:23:00,
2013-07-23 14:28:00,72.9,62.7,29.80,NNW,337,0.0,0.0,70,0.00,,,0.00,WUHU21623XXSP,2013-07-23 18:28:00,
2013-07-23 14:33:00,72.8,63.0,29.80,NW,315,0.0,0.0,71,0.00,,,0.00,WUHU21623XXSP,2013-07-23 18:33:00,
2013-07-23 14:38:00,72.9,63.1,29.81,WNW,292,2.7,2.7,71,0.00,,,0.00,WUHU21623XXSP,2013-07-23 18:38:00,
2013-07-23 14:43:00,73.0,63.2,29.80,WNW,292,2.7,2.7,71,0.00,,,0.00,WUHU21623XXSP,2013-07-23 18:43:00,
2013-07-23 14:49:00,73.1,63.3,29.81,NW,315,0.0,2.7,71,0.00,,,0.00,WUHU21623XXSP,2013-07-23 18:49:00,
2013-07-23 14:54:00,73.3,63.5,29.81,NW,315,0.0,0.0,71,0.00,,,0.00,WUHU21623XXSP,2013-07-23 18:54:00,
2013-07-23 14:59:00,72.9,62.7,29.80,NW,315,4.5,4.5,70,0.00,,,0.00,WUHU21623XXSP,2013-07-23 18:59:00,
2013-07-23 15:04:00,73.1,63.3,29.80,NW,315,1.3,4.5,71,0.00,,,0.00,WUHU21623XXSP,2013-07-23 19:04:00,
2013-07-23 15:09:00,73.2,63.5,29.79,NW,315,1.3,4.5,71,0.00,,,0.00,WUHU21623XXSP,2013-07-23 19:09:00,
2013-07-23 15:14:00,73.7,63.9,29.79,North,0,0.0,1.3,71,0.00,,,0.00,WUHU21623XXSP,2013-07-23 19:14:00,
2013-07-23 15:19:00,74.1,64.3,29.79,North,0,0.0,1.3,71,0.00,,,0.00,WUHU21623XXSP,2013-07-23 19:19:00,
2013-07-23 15:25:00,74.3,63.7,29.79,NNW,337,1.1,1.1,69,0.00,,,0.00,WUHU21623XXSP,2013-07-23 19:25:00,
2013-07-23 15:30:00,74.5,63.9,29.79,WNW,292,3.4,3.4,69,0.00,,,0.00,WUHU21623XXSP,2013-07-23 19:30:00,
2013-07-23 15:35:00,74.9,64.3,29.79,NNW,337,0.0,3.4,69,0.00,,,0.00,WUHU21623XXSP,2013-07-23 19:35:00,
2013-07-23 15:40:00,75.2,64.6,29.79,West,270,2.9,3.4,69,0.00,,,0.00,WUHU21623XXSP,2013-07-23 19:40:00,
2013-07-23 15:45:00,75.5,64.4,29.79,West,270,2.9,2.9,68,0.00,,,0.00,WUHU21623XXSP,2013-07-23 19:45:00,
2013-07-23 15:50:00,75.9,65.2,29.79,WNW,292,0.0,2.9,69,0.00,,,0.00,WUHU21623XXSP,2013-07-23 19:50:00,
2013-07-23 15:55:00,76.2,65.5,29.79,NW,315,0.0,0.0,69,0.00,,,0.00,WUHU21623XXSP,2013-07-23 19:55:00,
2013-07-23 16:00:00,76.4,65.7,29.79,NW,315,0.0,0.0,69,0.00,,,0.00,WUHU21623XXSP,2013-07-23 20:00:00,
2013-07-23 16:05:00,76.7,65.5,29.79,West,270,0.0,0.0,68,0.00,,,0.00,WUHU21623XXSP,2013-07-23 20:05:00,
2013-07-23 16:10:00,77.0,65.8,29.79,West,270,0.0,0.0,68,0.00,,,0.00,WUHU21623XXSP,2013-07-23 20:10:00,
2013-07-23 16:16:00,77.3,66.1,29.79,NNE,22,0.0,0.0,68,0.00,,,0.00,WUHU21623XXSP,2013-07-23 20:16:00,
2013-07-23 16:21:00,77.6,66.8,29.79,ENE,67,0.0,0.0,69,0.00,,,0.00,WUHU21623XXSP,2013-07-23 20:21:00,
2013-07-23 16:27:00,77.9,67.1,29.79,NNW,337,0.0,0.0,69,0.00,,,0.00,WUHU21623XXSP,2013-07-23 20:27:00,
2013-07-23 16:32:00,78.0,67.6,29.79,NE,45,0.0,0.0,70,0.00,,,0.00,WUHU21623XXSP,2013-07-23 20:32:00,
2013-07-23 16:37:00,78.3,67.9,29.80,West,270,0.0,0.0,70,0.00,,,0.00,WUHU21623XXSP,2013-07-23 20:37:00,
2013-07-23 16:42:00,78.6,68.2,29.80,NNW,337,0.0,0.0,70,0.00,,,0.00,WUHU21623XXSP,2013-07-23 20:42:00,
2013-07-23 16:47:00,78.7,68.8,29.80,North,0,0.0,0.0,71,0.00,,,0.00,WUHU21623XXSP,2013-07-23 20:47:00,
2013-07-23 16:53:00,79.0,69.0,29.81,NW,315,0.0,0.0,71,0.00,,,0.00,WUHU21623XXSP,2013-07-23 20:53:00,
2013-07-23 16:58:00,79.4,69.4,29.81,NNW,337,1.6,1.6,71,0.00,,,0.00,WUHU21623XXSP,2013-07-23 20:58:00,
2013-07-23 17:03:00,79.3,69.1,29.82,NW,315,4.7,4.7,71,0.00,,,0.00,WUHU21623XXSP,2013-07-23 21:03:00,
2013-07-23 17:08:00,79.2,68.9,29.81,ENE,67,0.0,4.7,71,0.00,,,0.00,WUHU21623XXSP,2013-07-23 21:08:00,
2013-07-23 17:13:00,79.0,68.8,29.81,ENE,67,0.0,0.0,71,0.00,,,0.00,WUHU21623XXSP,2013-07-23 21:13:00,
2013-07-23 17:18:00,78.6,68.4,29.82,North,0,4.0,4.0,71,0.00,,,0.00,WUHU21623XXSP,2013-07-23 21:18:00,
2013-07-23 17:24:00,78.6,68.4,29.82,NE,45,0.0,4.0,71,0.00,,,0.00,WUHU21623XXSP,2013-07-23 21:24:00,
2013-07-23 17:30:00,78.1,67.9,29.82,WNW,292,0.0,0.0,71,0.00,,,0.00,WUHU21623XXSP,2013-07-23 21:30:00,
2013-07-23 17:35:00,77.9,67.7,29.82,West,270,0.0,0.0,71,0.00,,,0.00,WUHU21623XXSP,2013-07-23 21:35:00,
2013-07-23 17:40:00,77.4,67.3,29.82,NNW,337,0.0,0.0,71,0.00,,,0.00,WUHU21623XXSP,2013-07-23 21:40:00,
2013-07-23 17:45:00,77.2,67.1,29.82,NNW,337,0.0,0.0,71,0.00,,,0.00,WUHU21623XXSP,2013-07-23 21:45:00,
2013-07-23 17:50:00,76.5,66.4,29.82,NNW,337,0.0,0.0,71,0.00,,,0.00,WUHU21623XXSP,2013-07-23 21:50:00,
2013-07-23 17:55:00,76.3,66.2,29.83,NNW,337,1.6,1.6,71,0.00,,,0.00,WUHU21623XXSP,2013-07-23 21:55:00,
2013-07-23 18:00:00,75.9,66.3,29.82,NNE,22,0.0,1.6,72,0.00,,,0.00,WUHU21623XXSP,2013-07-23 22:00:00,
2013-07-23 18:05:00,75.7,66.1,29.83,NW,315,0.0,0.0,72,0.00,,,0.00,WUHU21623XXSP,2013-07-23 22:05:00,
2013-07-23 18:10:00,75.4,65.7,29.83,ENE,67,0.0,0.0,72,0.00,,,0.00,WUHU21623XXSP,2013-07-23 22:10:00,
2013-07-23 18:15:00,75.4,65.7,29.83,ENE,67,0.0,0.0,72,0.00,,,0.00,WUHU21623XXSP,2013-07-23 22:15:00,
2013-07-23 18:21:00,75.0,65.4,29.83,NW,315,0.0,0.0,72,0.00,,,0.00,WUHU21623XXSP,2013-07-23 22:21:00,
2013-07-23 18:26:00,75.0,65.4,29.83,NNW,337,0.0,0.0,72,0.00,,,0.00,WUHU21623XXSP,2013-07-23 22:26:00,
2013-07-23 18:31:00,74.8,64.8,29.83,NW,315,4.3,4.3,71,0.00,,,0.00,WUHU21623XXSP,2013-07-23 22:31:00,
2013-07-23 18:36:00,74.5,64.5,29.83,NNW,337,0.0,4.3,71,0.00,,,0.00,WUHU21623XXSP,2013-07-23 22:36:00,
2013-07-23 18:41:00,74.1,64.2,29.83,WSW,247,0.0,4.3,71,0.00,,,0.00,WUHU21623XXSP,2013-07-23 22:41:00,
2013-07-23 18:47:00,74.1,64.2,29.83,North,0,0.0,0.0,71,0.00,,,0.00,WUHU21623XXSP,2013-07-23 22:47:00,
2013-07-23 18:52:00,73.8,63.5,29.83,NW,315,0.0,0.0,70,0.00,,,0.00,WUHU21623XXSP,2013-07-23 22:52:00,
2013-07-23 18:57:00,73.6,63.7,29.84,NW,315,0.0,0.0,71,0.00,,,0.00,WUHU21623XXSP,2013-07-23 22:57:00,
2013-07-23 19:02:00,73.4,63.5,29.84,North,0,0.0,0.0,71,0.00,,,0.00,WUHU21623XXSP,2013-07-23 23:02:00,
2013-07-23 19:07:00,73.2,63.3,29.84,ENE,67,0.0,0.0,71,0.00,,,0.00,WUHU21623XXSP,2013-07-23 23:07:00,
2013-07-23 19:12:00,73.0,62.8,29.85,NW,315,0.0,0.0,70,0.00,,,0.00,WUHU21623XXSP,2013-07-23 23:12:00,
2013-07-23 19:17:00,73.0,62.8,29.85,ENE,67,0.0,0.0,70,0.00,,,0.00,WUHU21623XXSP,2013-07-23 23:17:00,
2013-07-23 19:23:00,72.7,62.4,29.85,ENE,67,0.0,0.0,70,0.00,,,0.00,WUHU21623XXSP,2013-07-23 23:23:00,
2013-07-23 19:28:00,72.7,62.4,29.85,ENE,67,0.0,0.0,70,0.00,,,0.00,WUHU21623XXSP,2013-07-23 23:28:00,
2013-07-23 19:33:00,72.1,61.4,29.85,ENE,67,0.0,0.0,69,0.00,,,0.00,WUHU21623XXSP,2013-07-23 23:33:00,
2013-07-23 19:38:00,72.0,61.3,29.85,NNW,337,0.0,0.0,69,0.00,,,0.00,WUHU21623XXSP,2013-07-23 23:38:00,
2013-07-23 19:43:00,71.8,61.1,29.85,NW,315,0.0,0.0,69,0.00,,,0.00,WUHU21623XXSP,2013-07-23 23:43:00,
2013-07-23 19:48:00,71.8,61.1,29.85,NW,315,0.0,0.0,69,0.00,,,0.00,WUHU21623XXSP,2013-07-23 23:48:00,
2013-07-23 19:53:00,71.8,61.1,29.85,NW,315,0.0,0.0,69,0.00,,,0.00,WUHU21623XXSP,2013-07-23 23:53:00,
2013-07-23 19:58:00,70.9,60.2,29.85,NW,315,0.0,0.0,69,0.00,,,0.00,WUHU21623XXSP,2013-07-23 23:58:00,
2013-07-23 20:03:00,70.7,60.4,29.85,West,270,0.0,0.0,70,0.00,,,0.00,WUHU21623XXSP,2013-07-24 00:03:00,
2013-07-23 20:08:00,70.3,60.1,29.85,West,270,0.0,0.0,70,0.00,,,0.00,WUHU21623XXSP,2013-07-24 00:08:00,
2013-07-23 20:15:00,70.3,60.1,29.85,NW,315,0.0,0.0,70,0.00,,,0.00,WUHU21623XXSP,2013-07-24 00:15:00,
2013-07-23 20:21:00,70.3,60.1,29.86,NW,315,0.0,0.0,70,0.00,,,0.00,WUHU21623XXSP,2013-07-24 00:21:00,
2013-07-23 20:26:00,69.6,59.4,29.86,NW,315,0.0,0.0,70,0.00,,,0.00,WUHU21623XXSP,2013-07-24 00:26:00,
2013-07-23 20:32:00,69.6,59.8,29.86,NW,315,0.0,0.0,71,0.00,,,0.00,WUHU21623XXSP,2013-07-24 00:32:00,
2013-07-23 20:37:00,69.6,59.8,29.85,NW,315,0.0,0.0,71,0.00,,,0.00,WUHU21623XXSP,2013-07-24 00:37:00,
2013-07-23 20:42:00,69.6,59.8,29.85,NW,315,0.0,0.0,71,0.00,,,0.00,WUHU21623XXSP,2013-07-24 00:42:00,
2013-07-23 20:47:00,69.6,59.8,29.86,NW,315,0.0,0.0,71,0.00,,,0.00,WUHU21623XXSP,2013-07-24 00:47:00,
2013-07-23 20:49:00,69.6,59.8,29.86,North,0,0.0,0.0,71,0.00,,,0.00,WUHU21623XXSP,2013-07-24 00:49:00,
2013-07-23 20:52:00,69.6,59.8,29.86,NW,315,0.0,0.0,71,0.00,,,0.00,WUHU21623XXSP,2013-07-24 00:52:00,
2013-07-23 20:58:00,69.6,59.8,29.86,North,0,0.0,0.0,71,0.00,,,0.00,WUHU21623XXSP,2013-07-24 00:58:00,
2013-07-23 21:14:00,67.8,58.1,29.87,North,0,0.0,0.0,71,0.00,,,0.00,WUHU21623XXSP,2013-07-24 01:14:00,
2013-07-23 21:19:00,67.8,58.1,29.87,NNW,337,0.0,0.0,71,0.00,,,0.00,WUHU21623XXSP,2013-07-24 01:19:00,
2013-07-23 21:24:00,67.8,58.1,29.87,NNW,337,0.0,0.0,71,0.00,,,0.00,WUHU21623XXSP,2013-07-24 01:24:00,
2013-07-23 21:29:00,67.8,58.1,29.87,NNW,337,0.0,0.0,71,0.00,,,0.00,WUHU21623XXSP,2013-07-24 01:29:00,
2013-07-23 21:34:00,67.8,58.1,29.87,NNW,337,0.0,0.0,71,0.00,,,0.00,WUHU21623XXSP,2013-07-24 01:34:00,
2013-07-23 21:36:00,67.8,58.1,29.87,North,0,0.0,0.0,71,0.00,,,0.00,WUHU21623XXSP,2013-07-24 01:36:00,
2013-07-23 21:40:00,67.8,58.1,29.87,NNW,337,0.0,0.0,71,0.00,,,0.00,WUHU21623XXSP,2013-07-24 01:40:00,
2013-07-23 21:45:00,67.8,58.1,29.87,North,0,0.0,0.0,71,0.00,,,0.00,WUHU21623XXSP,2013-07-24 01:45:00,
2013-07-23 21:50:00,66.4,57.1,29.88,North,0,0.0,0.0,72,0.00,,,0.00,WUHU21623XXSP,2013-07-24 01:50:00,
2013-07-23 21:55:00,66.4,57.1,29.88,North,0,0.0,0.0,72,0.00,,,0.00,WUHU21623XXSP,2013-07-24 01:55:00,
2013-07-23 22:00:00,66.4,57.1,29.88,North,0,0.0,0.0,72,0.00,,,0.00,WUHU21623XXSP,2013-07-24 02:00:00,
2013-07-23 22:05:00,66.4,57.1,29.88,North,0,0.0,0.0,72,0.00,,,0.00,WUHU21623XXSP,2013-07-24 02:05:00,
2013-07-23 22:09:00,66.4,57.1,29.88,North,0,0.0,0.0,72,0.00,,,0.00,WUHU21623XXSP,2013-07-24 02:09:00,
2013-07-23 22:10:00,66.4,57.1,29.88,North,0,0.0,0.0,72,0.00,,,0.00,WUHU21623XXSP,2013-07-24 02:10:00,
2013-07-23 22:15:00,66.4,57.1,29.88,North,0,0.0,0.0,72,0.00,,,0.00,WUHU21623XXSP,2013-07-24 02:15:00,